createdAt,value
2023-01-19T03:59:26.605Z,19.24
2023-01-19T04:00:26.536Z,19.23
2023-01-19T04:01:26.664Z,19.23
2023-01-19T04:02:24.968Z,19.24
2023-01-19T04:03:26.565Z,19.16
2023-01-19T04:04:26.540Z,19.30
2023-01-19T04:05:26.558Z,19.27
2023-01-19T04:06:26.554Z,19.30
2023-01-19T04:07:26.555Z,19.27
2023-01-19T04:08:26.053Z,19.28
2023-01-19T04:09:26.576Z,19.30
2023-01-19T04:10:25.838Z,19.30
2023-01-19T04:11:26.572Z,19.30
2023-01-19T04:12:26.560Z,19.32
2023-01-19T04:13:26.547Z,19.30
2023-01-19T04:14:26.552Z,19.30
2023-01-19T04:15:26.560Z,19.37
2023-01-19T04:16:26.542Z,19.37
2023-01-19T04:17:26.552Z,19.46
2023-01-19T04:18:26.573Z,19.45
2023-01-19T04:19:26.561Z,19.45
2023-01-19T04:20:26.567Z,19.42
2023-01-19T04:21:25.812Z,19.43
2023-01-19T04:22:24.764Z,19.45
2023-01-19T04:23:26.075Z,19.52
2023-01-19T04:24:25.751Z,19.55
2023-01-19T04:25:25.755Z,19.46
2023-01-19T04:26:25.762Z,19.57
2023-01-19T04:27:24.732Z,19.47
2023-01-19T04:28:26.603Z,19.52
2023-01-19T04:29:26.560Z,19.52
2023-01-19T04:30:26.570Z,19.52
2023-01-19T04:31:26.768Z,19.64
2023-01-19T04:32:26.562Z,19.52
2023-01-19T04:33:26.575Z,19.49
2023-01-19T04:34:26.574Z,19.55
2023-01-19T04:35:26.577Z,19.52
2023-01-19T04:36:26.589Z,19.55
2023-01-19T04:37:26.581Z,19.61
2023-01-19T04:38:26.574Z,19.65
2023-01-19T04:39:26.572Z,19.56
2023-01-19T04:40:26.587Z,19.68
2023-01-19T04:41:26.585Z,19.63
2023-01-19T04:42:26.592Z,19.65
2023-01-19T04:43:26.586Z,19.67
2023-01-19T04:44:26.576Z,19.65
2023-01-19T04:45:26.585Z,19.67
2023-01-19T04:46:26.610Z,19.65
2023-01-19T04:47:26.622Z,19.68
2023-01-19T04:48:26.572Z,19.64
2023-01-19T04:49:26.579Z,19.68
2023-01-19T04:50:26.598Z,19.74
2023-01-19T04:51:26.584Z,19.68
2023-01-19T04:52:26.577Z,19.68
2023-01-19T04:53:26.585Z,19.74
2023-01-19T04:54:24.620Z,19.79
2023-01-19T04:55:26.091Z,19.80
2023-01-19T04:56:25.594Z,19.82
2023-01-19T04:57:25.598Z,19.78
2023-01-19T04:58:24.584Z,19.71
2023-01-19T04:59:24.581Z,19.82
2023-01-19T05:00:26.100Z,19.74
2023-01-19T05:01:26.304Z,19.74
2023-01-19T05:02:26.108Z,19.75
2023-01-19T05:03:26.574Z,19.82
2023-01-19T05:04:26.103Z,19.85
2023-01-19T05:05:24.542Z,19.78
2023-01-19T05:06:26.101Z,19.79
2023-01-19T05:07:24.555Z,19.75
2023-01-19T05:08:26.098Z,19.86
2023-01-19T05:09:26.100Z,19.80
2023-01-19T05:10:26.106Z,19.79
2023-01-19T05:11:26.145Z,19.89
2023-01-19T05:12:26.114Z,19.85
2023-01-19T05:13:25.516Z,19.72
2023-01-19T05:14:26.107Z,19.82
2023-01-19T05:15:24.536Z,19.90
2023-01-19T05:16:24.521Z,19.78
2023-01-19T05:17:24.506Z,19.78
2023-01-19T05:18:24.482Z,19.79
2023-01-19T05:19:25.639Z,19.83
2023-01-19T05:20:24.489Z,19.82
2023-01-19T05:21:24.474Z,19.85
2023-01-19T05:22:26.119Z,19.82
2023-01-19T05:23:24.471Z,19.78
2023-01-19T05:24:24.448Z,19.75
2023-01-19T05:25:24.445Z,19.86
2023-01-19T05:26:24.528Z,19.85
2023-01-19T05:27:26.140Z,19.89
2023-01-19T05:28:25.619Z,19.85
2023-01-19T05:29:24.428Z,19.83
2023-01-19T05:30:24.427Z,19.86
2023-01-19T05:31:25.829Z,19.83
2023-01-19T05:32:26.119Z,19.85
2023-01-19T05:33:26.142Z,19.87
2023-01-19T05:34:26.129Z,19.85
2023-01-19T05:35:35.232Z,19.87
2023-01-19T05:36:26.140Z,19.79
2023-01-19T05:37:26.109Z,19.86
2023-01-19T05:38:34.747Z,19.93
2023-01-19T05:39:25.398Z,19.86
2023-01-19T05:40:26.140Z,19.85
2023-01-19T05:41:26.129Z,19.87
2023-01-19T05:42:26.121Z,19.89
2023-01-19T05:43:26.139Z,19.83
2023-01-19T05:44:26.121Z,19.82
2023-01-19T05:45:26.153Z,19.85
2023-01-19T05:46:26.166Z,19.86
2023-01-19T05:47:26.159Z,19.85
2023-01-19T05:48:26.134Z,19.93
2023-01-19T05:49:26.155Z,19.87
2023-01-19T05:50:26.129Z,19.92
2023-01-19T05:51:26.169Z,19.85
2023-01-19T05:52:26.155Z,19.87
2023-01-19T05:53:26.135Z,19.89
2023-01-19T05:54:26.147Z,19.87
2023-01-19T05:55:25.293Z,19.98
2023-01-19T05:56:25.320Z,19.90
2023-01-19T05:57:25.638Z,20.00
2023-01-19T05:58:25.280Z,19.90
2023-01-19T05:59:24.365Z,19.93
2023-01-19T06:00:25.286Z,19.90
2023-01-19T06:01:25.361Z,19.92
2023-01-19T06:02:26.209Z,19.89
2023-01-19T06:03:26.229Z,19.92
2023-01-19T06:04:27.140Z,20.00
2023-01-19T06:05:26.150Z,19.95
2023-01-19T06:06:26.147Z,19.90
2023-01-19T06:07:28.238Z,19.90
2023-01-19T06:08:26.173Z,19.87
2023-01-19T06:09:26.144Z,19.92
2023-01-19T06:10:26.151Z,19.92
2023-01-19T06:11:26.153Z,19.92
2023-01-19T06:12:26.161Z,19.97
2023-01-19T06:13:25.671Z,19.93
2023-01-19T06:14:25.664Z,19.92
2023-01-19T06:15:25.205Z,19.86
2023-01-19T06:16:25.408Z,19.90
2023-01-19T06:17:24.192Z,19.90
2023-01-19T06:18:26.669Z,19.93
2023-01-19T06:19:25.196Z,19.92
2023-01-19T06:20:24.192Z,19.86
2023-01-19T06:21:26.165Z,19.92
2023-01-19T06:22:25.176Z,19.98
2023-01-19T06:23:27.603Z,19.98
2023-01-19T06:24:26.178Z,19.93
2023-01-19T06:25:25.182Z,19.92
2023-01-19T06:26:24.152Z,19.89
2023-01-19T06:27:25.664Z,19.89
2023-01-19T06:28:25.165Z,19.97
2023-01-19T06:29:24.156Z,19.90
2023-01-19T06:30:24.156Z,19.98
2023-01-19T06:31:24.167Z,19.92
2023-01-19T06:32:25.128Z,19.89
2023-01-19T06:33:25.667Z,19.98
2023-01-19T06:34:24.114Z,19.93
2023-01-19T06:35:25.677Z,19.92
2023-01-19T06:36:25.103Z,19.95
2023-01-19T06:37:26.169Z,19.95
2023-01-19T06:38:25.187Z,19.86
2023-01-19T06:39:25.701Z,19.95
2023-01-19T06:40:24.097Z,19.93
2023-01-19T06:41:24.075Z,19.90
2023-01-19T06:42:24.070Z,20.01
2023-01-19T06:43:25.690Z,19.90
2023-01-19T06:44:24.065Z,19.98
2023-01-19T06:45:25.737Z,19.92
2023-01-19T06:46:25.683Z,19.90
2023-01-19T06:47:25.700Z,19.89
2023-01-19T06:48:25.063Z,19.95
2023-01-19T06:49:25.675Z,20.00
2023-01-19T06:50:25.678Z,19.98
2023-01-19T06:51:25.718Z,19.90
2023-01-19T06:52:25.677Z,19.95
2023-01-19T06:53:24.531Z,19.90
2023-01-19T06:54:24.034Z,19.95
2023-01-19T06:55:27.906Z,19.93
2023-01-19T06:56:24.040Z,19.90
2023-01-19T06:57:24.000Z,19.87
2023-01-19T06:58:24.011Z,19.90
2023-01-19T06:59:24.045Z,19.89
2023-01-19T07:00:24.008Z,19.93
2023-01-19T07:01:25.816Z,19.98
2023-01-19T07:02:28.606Z,19.90
2023-01-19T07:03:23.994Z,19.98
2023-01-19T07:04:24.005Z,19.97
2023-01-19T07:05:23.957Z,19.93
2023-01-19T07:06:25.704Z,19.95
2023-01-19T07:07:25.685Z,19.87
2023-01-19T07:08:25.685Z,19.89
2023-01-19T07:09:25.681Z,19.90
2023-01-19T07:10:25.711Z,19.97
2023-01-19T07:11:31.814Z,19.95
2023-01-19T07:12:25.718Z,19.98
2023-01-19T07:13:25.687Z,19.97
2023-01-19T07:14:25.696Z,19.95
2023-01-19T07:15:25.685Z,19.92
2023-01-19T07:16:25.744Z,20.00
2023-01-19T07:17:25.814Z,19.97
2023-01-19T07:18:25.706Z,19.92
2023-01-19T07:19:25.691Z,19.98
2023-01-19T07:20:25.691Z,19.95
2023-01-19T07:21:27.218Z,19.89
2023-01-19T07:22:25.700Z,19.92
2023-01-19T07:23:25.711Z,19.90
2023-01-19T07:24:25.714Z,19.97
2023-01-19T07:25:25.704Z,19.98
2023-01-19T07:26:25.740Z,19.93
2023-01-19T07:27:25.236Z,19.87
2023-01-19T07:28:23.865Z,19.95
2023-01-19T07:29:23.849Z,19.97
2023-01-19T07:31:24.028Z,19.85
2023-01-19T07:32:23.832Z,20.00
2023-01-19T07:33:25.733Z,19.93
2023-01-19T07:34:25.718Z,20.01
2023-01-19T07:35:24.812Z,19.93
2023-01-19T07:38:25.727Z,20.00
2023-01-19T07:39:25.707Z,19.95
2023-01-19T07:40:25.729Z,20.02
2023-01-19T07:41:25.717Z,19.92
2023-01-19T07:42:25.753Z,19.89
2023-01-19T07:43:25.738Z,19.87
2023-01-19T07:45:27.845Z,19.98
2023-01-19T07:46:25.824Z,19.92
2023-01-19T07:47:25.715Z,20.02
2023-01-19T07:48:25.723Z,20.04
2023-01-19T07:49:25.739Z,19.98
2023-01-19T07:50:23.781Z,20.08
2023-01-19T07:51:25.748Z,19.98
2023-01-19T07:52:25.232Z,20.01
2023-01-19T07:53:23.735Z,20.01
2023-01-19T07:54:25.247Z,20.07
2023-01-19T07:55:23.714Z,20.05
2023-01-19T07:56:25.247Z,20.00
2023-01-19T07:57:23.716Z,20.02
2023-01-19T07:58:23.702Z,20.00
2023-01-19T07:59:25.319Z,20.01
2023-01-19T08:00:23.693Z,20.05
2023-01-19T08:01:25.366Z,20.02
2023-01-19T08:02:23.767Z,20.04
2023-01-19T08:03:25.248Z,20.08
2023-01-19T08:04:23.741Z,20.00
2023-01-19T08:05:23.693Z,20.02
2023-01-19T08:06:25.442Z,20.07
2023-01-19T08:07:23.674Z,20.01
2023-01-19T08:08:25.242Z,20.01
2023-01-19T08:09:25.250Z,20.02
2023-01-19T08:11:23.641Z,20.07
2023-01-19T08:12:25.244Z,20.01
2023-01-19T08:13:25.234Z,20.07
2023-01-19T08:14:25.246Z,20.07
2023-01-19T08:15:26.381Z,20.08
2023-01-19T08:16:25.256Z,20.11
2023-01-19T08:17:23.676Z,20.19
2023-01-19T08:19:25.275Z,20.07
2023-01-19T08:20:25.321Z,20.08
2023-01-19T08:21:25.271Z,20.10
2023-01-19T08:22:23.586Z,20.11
2023-01-19T08:23:25.242Z,20.12
2023-01-19T08:24:23.580Z,20.16
2023-01-19T08:25:23.604Z,20.19
2023-01-19T08:26:25.264Z,20.22
2023-01-19T08:27:23.610Z,20.19
2023-01-19T08:28:23.558Z,20.16
2023-01-19T08:29:23.668Z,20.15
2023-01-19T08:30:25.160Z,20.15
2023-01-19T08:31:25.002Z,20.19
2023-01-19T08:32:23.971Z,20.20
2023-01-19T08:33:23.797Z,20.11
2023-01-19T08:34:26.284Z,20.12
2023-01-19T08:35:25.484Z,20.20
2023-01-19T08:36:25.274Z,20.18
2023-01-19T08:37:23.552Z,20.25
2023-01-19T08:38:23.525Z,20.29
2023-01-19T08:39:23.505Z,20.23
2023-01-19T08:40:25.263Z,20.29
2023-01-19T08:41:25.333Z,20.26
2023-01-19T08:42:24.919Z,20.30
2023-01-19T08:43:25.276Z,20.29
2023-01-19T08:44:23.485Z,20.30
2023-01-19T08:45:23.497Z,20.29
2023-01-19T08:46:23.529Z,20.34
2023-01-19T08:47:25.367Z,20.32
2023-01-19T08:48:25.301Z,20.22
2023-01-19T08:49:23.471Z,20.25
2023-01-19T08:50:24.414Z,20.25
2023-01-19T08:51:23.520Z,20.26
2023-01-19T08:52:25.288Z,20.38
2023-01-19T08:53:23.491Z,20.37
2023-01-19T08:54:23.437Z,20.41
2023-01-19T08:55:23.510Z,20.41
2023-01-19T08:56:26.304Z,20.34
2023-01-19T08:57:23.473Z,20.32
2023-01-19T08:58:23.461Z,20.46
2023-01-19T08:59:25.297Z,20.40
2023-01-19T09:00:23.417Z,20.46
2023-01-19T09:01:25.466Z,20.38
2023-01-19T09:02:23.639Z,20.57
2023-01-19T09:03:25.560Z,20.51
2023-01-19T09:04:25.301Z,20.53
2023-01-19T09:05:25.279Z,20.54
2023-01-19T09:06:23.401Z,20.58
2023-01-19T09:07:23.416Z,20.61
2023-01-19T09:08:25.300Z,20.57
2023-01-19T09:09:23.385Z,20.54
2023-01-19T09:10:25.864Z,20.58
2023-01-19T09:11:26.285Z,20.64
2023-01-19T09:12:25.285Z,20.58
2023-01-19T09:13:25.354Z,20.51
2023-01-19T09:14:25.305Z,20.60
2023-01-19T09:15:25.281Z,20.54
2023-01-19T09:16:23.391Z,20.60
2023-01-19T09:17:23.340Z,20.57
2023-01-19T09:18:25.317Z,20.64
2023-01-19T09:19:23.362Z,20.60
2023-01-19T09:20:23.333Z,20.57
2023-01-19T09:21:25.343Z,20.54
2023-01-19T09:22:23.322Z,20.60
2023-01-19T09:23:24.861Z,20.64
2023-01-19T09:24:23.297Z,20.67
2023-01-19T09:25:23.334Z,20.63
2023-01-19T09:26:24.855Z,20.58
2023-01-19T09:27:23.294Z,20.68
2023-01-19T09:28:23.289Z,20.61
2023-01-19T09:29:24.284Z,20.66
2023-01-19T09:30:24.820Z,20.68
2023-01-19T09:31:23.493Z,20.63
2023-01-19T09:32:23.268Z,20.72
2023-01-19T09:33:24.835Z,20.74
2023-01-19T09:34:24.844Z,20.72
2023-01-19T09:35:23.263Z,20.74
2023-01-19T09:36:24.803Z,20.75
2023-01-19T09:37:23.251Z,20.74
2023-01-19T09:38:24.838Z,20.72
2023-01-19T09:39:24.269Z,20.74
2023-01-19T09:40:24.829Z,20.64
2023-01-19T09:41:24.900Z,20.71
2023-01-19T09:42:24.818Z,20.64
2023-01-19T09:43:23.231Z,20.68
2023-01-19T09:44:24.819Z,20.68
2023-01-19T09:45:24.817Z,20.72
2023-01-19T09:46:24.833Z,20.72
2023-01-19T09:47:24.877Z,20.68
2023-01-19T09:48:24.826Z,20.72
2023-01-19T09:49:24.830Z,20.81
2023-01-19T09:50:24.820Z,20.81
2023-01-19T09:51:24.817Z,20.81
2023-01-19T09:52:25.834Z,20.85
2023-01-19T09:53:24.815Z,20.85
2023-01-19T09:55:24.816Z,20.81
2023-01-19T09:56:24.852Z,20.88
2023-01-19T09:57:24.828Z,20.76
2023-01-19T09:58:24.842Z,20.79
2023-01-19T09:59:24.857Z,20.81
2023-01-19T10:00:24.824Z,20.81
2023-01-19T10:01:24.933Z,20.85
2023-01-19T10:02:24.835Z,20.76
2023-01-19T10:13:33.789Z,20.86
2023-01-19T10:14:33.683Z,20.85
2023-01-19T10:15:33.691Z,20.88
2023-01-19T10:16:32.019Z,20.85
2023-01-19T10:17:33.717Z,20.76
2023-01-19T10:18:33.197Z,20.78
2023-01-19T10:19:31.973Z,20.88
2023-01-19T10:20:33.675Z,20.79
2023-01-19T10:21:31.969Z,20.85
2023-01-19T10:22:31.956Z,20.81
2023-01-19T10:23:33.704Z,20.79
2023-01-19T10:24:31.957Z,20.86
2023-01-19T10:25:32.035Z,20.88
2023-01-19T10:26:31.953Z,20.79
2023-01-19T10:27:31.951Z,20.79
2023-01-19T10:28:31.975Z,20.82
2023-01-19T10:29:34.104Z,20.86
2023-01-19T10:30:32.438Z,20.82
2023-01-19T10:31:32.765Z,20.83
2023-01-19T10:32:33.016Z,20.82
2023-01-19T10:33:32.672Z,20.82
2023-01-19T10:34:33.731Z,20.83
2023-01-19T10:35:32.734Z,20.86
2023-01-19T10:36:31.927Z,20.81
2023-01-19T10:37:33.784Z,20.88
2023-01-19T10:38:34.791Z,20.86
2023-01-19T10:39:34.539Z,20.94
2023-01-19T10:40:32.005Z,20.91
2023-01-19T10:41:31.946Z,20.93
2023-01-19T10:42:31.952Z,20.94
2023-01-19T10:43:31.999Z,20.94
2023-01-19T10:44:31.984Z,20.88
2023-01-19T10:45:35.953Z,20.88
2023-01-19T10:46:32.300Z,20.91
2023-01-19T10:47:33.713Z,20.97
2023-01-19T10:48:31.881Z,20.83
2023-01-19T10:49:33.777Z,20.91
2023-01-19T10:50:31.900Z,20.86
2023-01-19T10:51:33.712Z,20.97
2023-01-19T10:52:33.787Z,20.98
2023-01-19T10:53:33.761Z,20.98
2023-01-19T10:54:31.896Z,20.98
2023-01-19T10:55:33.724Z,21.01
2023-01-19T10:56:33.809Z,21.01
2023-01-19T10:57:33.711Z,20.98
2023-01-19T10:58:33.736Z,21.06
2023-01-19T10:59:33.707Z,21.00
2023-01-19T11:00:33.762Z,21.03
2023-01-19T11:01:33.836Z,20.90
2023-01-19T11:02:34.017Z,21.04
2023-01-19T11:03:33.792Z,21.00
2023-01-19T11:04:33.764Z,21.06
2023-01-19T11:05:33.781Z,21.03
2023-01-19T11:06:31.781Z,21.03
2023-01-19T11:07:33.716Z,20.96
2023-01-19T11:08:33.728Z,21.06
2023-01-19T11:09:33.737Z,20.97
2023-01-19T11:10:33.808Z,20.98
2023-01-19T11:11:33.732Z,21.12
2023-01-19T11:12:33.726Z,20.97
2023-01-19T11:13:33.726Z,21.03
2023-01-19T11:14:33.232Z,21.08
2023-01-19T11:15:33.244Z,21.09
2023-01-19T11:16:33.271Z,21.08
2023-01-19T11:17:33.243Z,21.09
2023-01-19T11:18:34.250Z,21.11
2023-01-19T11:19:33.254Z,21.13
2023-01-19T11:20:33.299Z,21.11
2023-01-19T11:21:31.720Z,21.13
2023-01-19T11:22:33.737Z,21.19
2023-01-19T11:23:33.919Z,21.22
2023-01-19T11:24:31.691Z,21.19
2023-01-19T11:25:31.696Z,21.16
2023-01-19T11:26:31.709Z,21.19
2023-01-19T11:27:33.230Z,21.16
2023-01-19T11:28:33.243Z,21.21
2023-01-19T11:29:33.253Z,21.23
2023-01-19T11:30:33.252Z,21.21
2023-01-19T11:31:33.339Z,21.30
2023-01-19T11:32:33.292Z,21.33
2023-01-19T11:33:31.705Z,21.33
2023-01-19T11:34:31.652Z,21.33
2023-01-19T11:35:33.260Z,21.31
2023-01-19T11:37:33.248Z,21.33
2023-01-19T11:38:33.268Z,21.37
2023-01-19T11:40:33.271Z,21.41
2023-01-19T11:41:31.669Z,21.55
2023-01-19T11:42:33.304Z,21.46
2023-01-19T11:43:48.204Z,21.49
2023-01-19T11:44:31.609Z,21.53
2023-01-19T11:45:33.354Z,21.56
2023-01-19T11:46:33.276Z,21.56
2023-01-19T11:47:31.603Z,21.67
2023-01-19T11:48:33.284Z,21.66
2023-01-19T11:49:33.279Z,21.76
2023-01-19T11:50:33.268Z,21.73
2023-01-19T11:51:33.264Z,21.77
2023-01-19T11:52:33.261Z,21.83
2023-01-19T11:53:31.602Z,21.92
2023-01-19T11:54:33.267Z,21.99
2023-01-19T11:55:31.568Z,22.11
2023-01-19T11:56:33.279Z,22.26
2023-01-19T11:57:31.593Z,22.24
2023-01-19T11:58:31.566Z,22.26
2023-01-19T11:59:31.601Z,22.38
2023-01-19T12:00:33.263Z,22.36
2023-01-19T12:01:33.296Z,22.48
2023-01-19T12:02:32.873Z,22.48
2023-01-19T12:03:31.882Z,22.57
2023-01-19T12:04:31.592Z,22.57
2023-01-19T12:05:33.305Z,22.73
2023-01-19T12:06:31.550Z,22.76
2023-01-19T12:07:33.274Z,22.82
2023-01-19T12:08:31.540Z,22.81
2023-01-19T12:09:33.289Z,22.86
2023-01-19T12:10:33.301Z,22.91
2023-01-19T12:11:33.305Z,22.96
2023-01-19T12:12:33.299Z,23.04
2023-01-19T12:13:33.388Z,23.10
2023-01-19T12:14:33.178Z,23.09
2023-01-19T12:15:33.941Z,23.01
2023-01-19T12:16:35.357Z,23.16
2023-01-19T12:17:32.513Z,23.19
2023-01-19T12:18:33.234Z,23.28
2023-01-19T12:19:38.966Z,23.25
2023-01-19T12:21:31.753Z,23.32
2023-01-19T12:22:31.937Z,23.44
2023-01-19T12:23:32.466Z,23.40
2023-01-19T12:24:34.222Z,23.48
2023-01-19T12:25:33.880Z,23.59
2023-01-19T12:26:32.132Z,23.75
2023-01-19T12:27:32.200Z,23.93
2023-01-19T12:28:31.729Z,24.00
2023-01-19T12:29:31.900Z,24.15
2023-01-19T12:30:33.356Z,24.22
2023-01-19T12:31:33.293Z,24.39
2023-01-19T12:32:32.941Z,24.51
2023-01-19T12:33:34.822Z,24.61
2023-01-19T12:34:31.872Z,24.71
2023-01-19T12:35:35.151Z,24.74
2023-01-19T12:36:31.502Z,24.83
2023-01-19T12:37:31.578Z,24.82
2023-01-19T12:38:34.325Z,24.97
2023-01-19T12:39:31.502Z,24.96
2023-01-19T12:40:33.321Z,24.97
2023-01-19T12:41:31.519Z,25.01
2023-01-19T12:42:31.512Z,25.11
2023-01-19T12:43:31.493Z,25.27
2023-01-19T12:44:31.647Z,25.39
2023-01-19T12:45:33.611Z,25.48
2023-01-19T12:46:33.401Z,25.62
2023-01-19T12:47:33.324Z,25.66
2023-01-19T12:48:33.303Z,25.67
2023-01-19T12:49:33.354Z,25.62
2023-01-19T12:50:31.519Z,25.67
2023-01-19T12:51:33.329Z,25.67
2023-01-19T12:52:31.622Z,25.71
2023-01-19T12:53:33.382Z,25.76
2023-01-19T12:54:33.351Z,25.93
2023-01-19T12:55:33.322Z,25.99
2023-01-19T12:56:31.498Z,26.30
2023-01-19T12:57:31.518Z,26.35
2023-01-19T12:58:31.505Z,26.49
2023-01-19T12:59:33.448Z,26.50
2023-01-19T13:00:31.537Z,26.54
2023-01-19T13:01:33.450Z,26.60
2023-01-19T13:02:33.866Z,26.75
2023-01-19T13:03:32.823Z,26.90
2023-01-19T13:04:33.363Z,26.99
2023-01-19T13:05:33.625Z,27.04
2023-01-19T13:06:31.692Z,27.12
2023-01-19T13:07:31.516Z,27.01
2023-01-19T13:08:33.325Z,27.13
2023-01-19T13:09:31.523Z,27.16
2023-01-19T13:10:33.366Z,27.23
2023-01-19T13:11:34.599Z,27.26
2023-01-19T13:12:31.716Z,27.18
2023-01-19T13:13:31.526Z,27.26
2023-01-19T13:14:31.516Z,27.15
2023-01-19T13:15:33.571Z,27.09
2023-01-19T13:16:32.801Z,26.99
2023-01-19T13:17:34.363Z,27.04
2023-01-19T13:18:31.542Z,26.82
2023-01-19T13:19:33.331Z,26.81
2023-01-19T13:20:33.360Z,26.64
2023-01-19T13:21:33.365Z,26.60
2023-01-19T13:22:31.699Z,26.39
2023-01-19T13:23:33.397Z,26.35
2023-01-19T13:24:31.537Z,26.32
2023-01-19T13:25:31.598Z,26.38
2023-01-19T13:26:33.359Z,26.50
2023-01-19T13:27:31.576Z,26.60
2023-01-19T13:28:31.534Z,26.67
2023-01-19T13:29:33.359Z,26.68
2023-01-19T13:30:31.567Z,26.90
2023-01-19T13:31:33.391Z,26.86
2023-01-19T13:32:31.545Z,26.99
2023-01-19T13:33:33.357Z,27.00
2023-01-19T13:34:31.529Z,27.12
2023-01-19T13:35:33.387Z,27.16
2023-01-19T13:36:32.897Z,27.26
2023-01-19T13:37:32.529Z,27.21
2023-01-19T13:38:31.528Z,27.00
2023-01-19T13:39:33.357Z,26.96
2023-01-19T13:40:31.531Z,26.87
2023-01-19T13:41:33.569Z,26.72
2023-01-19T13:42:32.901Z,26.53
2023-01-19T13:43:33.370Z,26.38
2023-01-19T13:44:31.532Z,26.20
2023-01-19T13:45:33.383Z,26.11
2023-01-19T13:46:33.524Z,25.96
2023-01-19T13:47:33.377Z,25.94
2023-01-19T13:48:33.386Z,25.81
2023-01-19T13:49:33.425Z,25.71
2023-01-19T13:50:33.397Z,25.69
2023-01-19T13:51:33.398Z,25.62
2023-01-19T13:52:32.557Z,25.48
2023-01-19T13:53:33.412Z,25.37
2023-01-19T13:54:32.549Z,25.27
2023-01-19T13:55:32.557Z,25.22
2023-01-19T13:56:32.561Z,25.11
2023-01-19T13:57:32.574Z,25.02
2023-01-19T13:58:31.582Z,24.96
2023-01-19T13:59:32.668Z,24.86
2023-01-19T14:00:33.418Z,24.77
2023-01-19T14:01:31.785Z,24.70
2023-01-19T14:02:33.567Z,24.58
2023-01-19T14:03:31.655Z,24.58
2023-01-19T14:04:33.473Z,24.39
2023-01-19T14:05:33.412Z,24.40
2023-01-19T14:06:33.413Z,24.29
2023-01-19T14:07:33.500Z,24.26
2023-01-19T14:08:33.392Z,24.24
2023-01-19T14:09:33.403Z,24.11
2023-01-19T14:10:31.548Z,24.12
2023-01-19T14:11:33.408Z,23.99
2023-01-19T14:12:33.387Z,24.03
2023-01-19T14:13:33.489Z,23.89
2023-01-19T14:14:33.486Z,23.87
2023-01-19T14:15:33.388Z,23.87
2023-01-19T14:16:33.462Z,23.75
2023-01-19T14:17:33.413Z,23.78
2023-01-19T14:18:33.415Z,23.75
2023-01-19T14:19:33.433Z,23.75
2023-01-19T14:20:33.408Z,23.72
2023-01-19T14:21:33.417Z,23.75
2023-01-19T14:22:33.417Z,23.78
2023-01-19T14:23:33.411Z,23.84
2023-01-19T14:24:33.534Z,23.79
2023-01-19T14:25:33.427Z,23.78
2023-01-19T14:26:33.402Z,23.79
2023-01-19T14:27:33.406Z,23.74
2023-01-19T14:28:33.401Z,23.77
2023-01-19T14:29:33.412Z,23.75
2023-01-19T14:30:32.953Z,23.72
2023-01-19T14:31:31.558Z,23.70
2023-01-19T14:32:31.503Z,23.63
2023-01-19T14:33:31.471Z,23.57
2023-01-19T14:34:31.468Z,23.45
2023-01-19T14:35:33.508Z,23.37
2023-01-19T14:36:33.523Z,23.42
2023-01-19T14:37:33.544Z,23.37
2023-01-19T14:38:33.412Z,23.28
2023-01-19T14:39:33.444Z,23.25
2023-01-19T14:40:31.457Z,23.18
2023-01-19T14:41:33.419Z,23.18
2023-01-19T14:42:33.091Z,23.10
2023-01-19T14:43:33.484Z,23.06
2023-01-19T14:44:33.578Z,23.04
2023-01-19T14:45:33.458Z,23.03
2023-01-19T14:46:31.516Z,22.99
2023-01-19T14:47:32.516Z,22.97
2023-01-19T14:48:31.461Z,22.89
2023-01-19T14:49:31.451Z,22.88
2023-01-19T14:50:33.009Z,22.88
2023-01-19T14:51:32.951Z,22.81
2023-01-19T14:52:32.989Z,22.85
2023-01-19T14:53:32.924Z,22.84
2023-01-19T14:54:32.927Z,22.84
2023-01-19T14:55:32.953Z,22.70
2023-01-19T14:56:32.942Z,22.71
2023-01-19T14:57:32.945Z,22.64
2023-01-19T14:58:31.427Z,22.61
2023-01-19T14:59:32.973Z,22.63
2023-01-19T15:00:33.652Z,22.61
2023-01-19T15:01:33.142Z,22.51
2023-01-19T15:02:31.474Z,22.46
2023-01-19T15:03:43.340Z,22.48
2023-01-19T15:04:31.443Z,22.48
2023-01-19T15:05:31.393Z,22.46
2023-01-19T15:06:32.962Z,22.39
2023-01-19T15:07:31.395Z,22.44
2023-01-19T15:08:32.939Z,22.34
2023-01-19T15:09:32.380Z,22.36
2023-01-19T15:10:32.965Z,22.24
2023-01-19T15:11:31.413Z,22.26
2023-01-19T15:12:32.963Z,22.22
2023-01-19T15:13:31.390Z,22.23
2023-01-19T15:14:32.949Z,22.20
2023-01-19T15:15:32.968Z,22.26
2023-01-19T15:16:33.090Z,22.16
2023-01-19T15:17:32.971Z,22.12
2023-01-19T15:18:32.957Z,22.11
2023-01-19T15:19:32.971Z,22.08
2023-01-19T15:20:32.951Z,22.07
2023-01-19T15:21:33.001Z,21.96
2023-01-19T15:22:32.960Z,22.00
2023-01-19T15:23:32.961Z,21.89
2023-01-19T15:24:33.053Z,21.92
2023-01-19T15:25:32.959Z,21.90
2023-01-19T15:26:32.978Z,21.83
2023-01-19T15:27:32.958Z,21.76
2023-01-19T15:28:32.493Z,21.83
2023-01-19T15:29:32.433Z,21.76
2023-01-19T15:30:32.484Z,21.77
2023-01-19T15:31:32.478Z,21.71
2023-01-19T15:32:32.302Z,21.70
2023-01-19T15:33:32.364Z,21.64
2023-01-19T15:34:31.315Z,21.66
2023-01-19T15:35:31.285Z,21.64
2023-01-19T15:36:32.507Z,21.66
2023-01-19T15:37:32.281Z,21.61
2023-01-19T15:38:32.974Z,21.56
2023-01-19T15:39:32.979Z,21.53
2023-01-19T15:40:32.988Z,21.58
2023-01-19T15:41:31.275Z,21.48
2023-01-19T15:42:32.992Z,21.48
2023-01-19T15:43:32.984Z,21.52
2023-01-19T15:44:32.971Z,21.43
2023-01-19T15:45:33.044Z,21.41
2023-01-19T15:46:32.490Z,21.43
2023-01-19T15:47:32.992Z,21.33
2023-01-19T15:48:33.003Z,21.40
2023-01-19T15:49:33.429Z,21.36
2023-01-19T15:50:33.013Z,21.37
2023-01-19T15:51:32.992Z,21.34
2023-01-19T15:52:33.003Z,21.25
2023-01-19T15:53:32.978Z,21.23
2023-01-19T15:54:32.996Z,21.30
2023-01-19T15:55:31.233Z,21.25
2023-01-19T15:56:31.260Z,21.30
2023-01-19T15:57:32.522Z,21.28
2023-01-19T15:58:31.217Z,21.21
2023-01-19T15:59:31.209Z,21.22
2023-01-19T16:00:32.502Z,21.15
2023-01-19T16:12:52.450Z,20.93
2023-01-19T16:13:52.430Z,20.91
2023-01-19T16:14:52.434Z,20.93
2023-01-19T16:15:52.416Z,20.91
2023-01-19T16:16:51.933Z,20.94
2023-01-19T16:17:51.920Z,20.93
2023-01-19T16:18:51.975Z,20.78
2023-01-19T16:19:51.914Z,20.90
2023-01-19T16:20:51.929Z,20.81
2023-01-19T16:21:51.930Z,20.82
2023-01-19T16:22:51.943Z,20.85
2023-01-19T16:23:51.943Z,20.86
2023-01-19T16:24:51.921Z,20.88
2023-01-19T16:25:51.933Z,20.85
2023-01-19T16:26:51.941Z,20.81
2023-01-19T16:27:51.365Z,20.78
2023-01-19T16:28:51.463Z,20.74
2023-01-19T16:29:51.931Z,20.71
2023-01-19T16:30:51.993Z,20.78
2023-01-19T16:31:52.031Z,20.71
2023-01-19T16:32:51.947Z,20.68
2023-01-19T16:33:51.943Z,20.72
2023-01-19T16:34:51.931Z,20.66
2023-01-19T16:35:51.960Z,20.71
2023-01-19T16:36:51.963Z,20.67
2023-01-19T16:37:51.949Z,20.72
2023-01-19T16:38:51.980Z,20.68
2023-01-19T16:39:51.958Z,20.72
2023-01-19T16:40:51.939Z,20.67
2023-01-19T16:41:51.981Z,20.71
2023-01-19T16:42:51.949Z,20.58
2023-01-19T16:43:51.963Z,20.71
2023-01-19T16:44:51.489Z,20.58
2023-01-19T16:45:51.980Z,20.68
2023-01-19T16:46:51.939Z,20.60
2023-01-19T16:47:51.966Z,20.58
2023-01-19T16:48:51.944Z,20.60
2023-01-19T16:49:51.977Z,20.64
2023-01-19T16:50:51.943Z,20.61
2023-01-19T16:51:51.958Z,20.58
2023-01-19T16:52:51.968Z,20.64
2023-01-19T16:53:52.002Z,20.57
2023-01-19T16:54:51.957Z,20.58
2023-01-19T16:55:51.950Z,20.57
2023-01-19T16:56:51.956Z,20.56
2023-01-19T16:57:51.975Z,20.58
2023-01-19T16:58:51.470Z,20.53
2023-01-19T16:59:50.245Z,20.56
2023-01-19T17:00:50.394Z,20.56
2023-01-19T17:01:52.120Z,20.56
2023-01-19T17:02:51.503Z,20.60
2023-01-19T17:03:51.200Z,20.57
2023-01-19T17:04:51.204Z,20.57
2023-01-19T17:05:51.197Z,20.61
2023-01-19T17:06:50.204Z,20.54
2023-01-19T17:07:51.977Z,20.56
2023-01-19T17:08:50.207Z,20.51
2023-01-19T17:09:51.980Z,20.49
2023-01-19T17:10:51.209Z,20.53
2023-01-19T17:11:51.968Z,20.58
2023-01-19T17:12:51.479Z,20.53
2023-01-19T17:13:51.973Z,20.56
2023-01-19T17:14:51.965Z,20.48
2023-01-19T17:15:51.978Z,20.53
2023-01-19T17:16:52.024Z,20.51
2023-01-19T17:17:51.972Z,20.51
2023-01-19T17:18:52.011Z,20.49
2023-01-19T17:19:51.970Z,20.53
2023-01-19T17:20:51.982Z,20.46
2023-01-19T17:21:51.977Z,20.46
2023-01-19T17:22:51.978Z,20.44